Athens, Greece

12:54 PM EEST on April 25, 2017 (GMT +0300)
SV1JST-Athina | | Change Station

Elev 290 ft 37.89 °N, 23.76 °E | Updated 19 seconds ago

Clear
Clear
73.8 °F
Feels Like 77 °F
N
6.9
Wind Variable Wind from SSW
Gusts 6.9 mph

Today
High -- | Low -- °F
--% Chance of Precip.
Yesterday
High -- | Low -- °F
Precip. -- in
Pressure 30.21 in
Visibility 6.2 miles
Clouds Few 3000 ft
Heat Index 77 °F
Dew Point 50 °F
Humidity 43%
Rainfall 0.00 in
Snow Depth Not available.
6:36 AM 8:10 PM
Waning Crescent, 2% visible
METAR LGAV 250920Z 08004KT 260V150 9999 FEW030 19/07 Q1023 NOSIG
Pressure 30.21 in
Visibility 6.2 miles
Clouds Few 3000 ft
Heat Index 77 °F
Dew Point 50 °F
Humidity 43%
Rainfall 0.00 in
Snow Depth Not available.
6:36 AM 8:10 PM
Waning Crescent, 2% visible
METAR LGAV 250920Z 08004KT 260V150 9999 FEW030 19/07 Q1023 NOSIG

Get Severe Weather Alerts

Thanks for signing up!

Be on the lookout for a verification email in your inbox.

You'll start receiving the daily forecast at 8 AM.

×

10-Day Weather Forecast

×

Almanac

Astronomy

Apr. 25, 2017 Rise Set
Actual Time
Civil Twilight
Nautical Twilight
Astronomical Twilight
Moon
Length of Visible Light
Length of Day
Tomorrow will be .
, % of the Moon is Illuminated

Today's Extremes

Country Highs Country Lows

Community

WunderPhotos

WunderBlog® & News

Nearby

Air Quality

  Air Quality AQ Index Pollutant
Not available.

Snow Depth

Station Depth Elevation

Earthquake Activity

City Distance Mag. Time & Date
Minimum magnitude displayed is 2.5.

Coastal Water Temperatures

Place Temperature

Stations

Nearby Weather Stations

Station Location Temp. Windchill Dew Point Humidity Wind Precip. Elev Updated Type